Pagrindinis puslapis
METAR-TAF:

METAR-TAF

Oro uostai :

Vekšė, Švedija

platuma: 56-51N, ilguma: 014-50E, Aukštis: 199 m

Dabartinis oras

Ataskaita buvo paskelbta 21 minutes, ne 07:20 UTC
Vėjas 5 kt iš Vakarų
Temperatūra 9°C
Drėgmė 100%
Slėgis 1028 hPa
Matomumas: 0800 m
rūkas

METAR: ESMX 180720Z 27005KT 0800 R19/P1000D FG VV002 09/09 Q1028

Laikas: 09:41 (07:41 UTC)

Prognozė

Ataskaita buvo paskelbta 1 valandą ir 17 minutes, ne 06:24 UTC
Prognozė galioja nuo 18 metu 06 UTC su 18 metu 15 UTC
Vėjas 4 kt iš Vakarų/Pietvakarių
Matomumas: 0200 m
ne aukštis 200 ft
rūkas
Tikimybė 40%
nuo 18 metu 06 UTC su 18 metu 07 UTC
Matomumas 10 km arba daugiau
Su prošvaistėmis ne aukštis 400 ft
Tapsmas
nuo 18 metu 07 UTC su 18 metu 09 UTC
Matomumas 10 km arba daugiau
Išsisklaidę debesys ne aukštis 2500 ft

TAF: ESMX 180624Z 1806/1815 25004KT 0200 FG VV002 PROB40 1806/1807 9999 NSW BKN004 BECMG 1807/1809 9999 NSW SCT025

Orai ataskaitas ir orų prognozės (METAR, TAF).

turimą stotys yra geltonos ir raudonos taškus žemėlapyje.

Perkelti pele per norėdami pamatyti stoties vardą.

Tada spustelėkite, norėdami matyti oro stebėjimo ir prognozės.

Norėdami pakeisti žemėlapį: spustelėkite ant žalios mygtukų su juodo kryžiaus žemyn,; žalią mygtuką su brūkšneliu, jei norite nutolinti; arba žalių rodyklių gretimoms žemėlapius.


METAR-TAF: